Andreas, PA (18211)

11:56 AM EDT on September 26, 2016 (GMT -0400)
Mogo | | Change Station

Elev 1500 ft 40.82 °N, 75.87 °W | Updated 11 seconds ago

Overcast
Overcast
59.4 °F
Feels Like 59.4 °F
N
4.0
Wind Variable Wind from SSE
Gusts 10.0 mph

Today
High -- | Low -- °F
--% Chance of Precip.
Yesterday
High -- | Low -- °F
Precip. -- in
Pressure 30.14 in
Visibility 10.0 miles
Clouds Overcast 5000 ft
Dew Point 49 °F
Humidity 68%
Rainfall 0.00 in
Snow Depth Not available.
6:55 AM 6:52 PM
Waning Crescent, 18% visible
METAR KABE 261551Z 19008KT 10SM OVC050 20/09 A3014 RMK AO2 SLP206 T02000089
Pressure 30.14 in
Visibility 10.0 miles
Clouds Overcast 5000 ft
Dew Point 49 °F
Humidity 68%
Rainfall 0.00 in
Snow Depth Not available.
6:55 AM 6:52 PM
Waning Crescent, 18% visible
METAR KABE 261551Z 19008KT 10SM OVC050 20/09 A3014 RMK AO2 SLP206 T02000089

10-Day Weather Forecast

Almanac

Astronomy

Sep. 26, 2016 Rise Set
Actual Time
Civil Twilight
Nautical Twilight
Astronomical Twilight
Moon
Length of Visible Light
Length of Day
Tomorrow will be .
, % of the Moon is Illuminated

Today's Extremes

State Highs State Lows

Community

WunderPhotos

Upload Photos

1,941,906 photos uploaded!

WunderBlog® & News

Nearby

Air Quality

  Air Quality AQ Index Pollutant
Not available.

Snow Depth

Station Depth Elevation

Earthquake Activity

City Distance Mag. Time & Date
Minimum magnitude displayed is 2.5.

Coastal Water Temperatures

Place Temperature

Stations

Nearby Weather Stations

Station Location Temp. Windchill Dew Point Humidity Wind Precip. Elev Updated Type
                   

Watches & Warnings

There are currently no watches in effect.